Terminal Aerodrome Forecast
Issued by NWS Pittsburgh, PA

Home | Current Version | Previous Version | Text Only | Print | Product List | Glossary On
Versions: 1 2 3 4 5 6 7 8 9 10 11 12 13 14 15 16 17 18 19 20 21 22 23 24 25 26 27 28 29 30 31 32 33
000
FTUS41 KPBZ 220500
TAFPIT
TAF
KPIT 220523Z 2206/2312 VRB05KT P6SM SCT015 OVC120
     FM220800 VRB03KT 5SM BR BKN015 OVC100
      TEMPO 2209/2212 BKN008 OVC015
     FM221500 20005KT 6SM -RA VCTS BKN035CB
     FM230100 VRB05KT P6SM BKN040
     FM230600 VRB03KT 5SM BR SCT040 BKN080=

USA.gov is the U.S. government's official web portal to all federal, state and local government web resources and services.